sensor_id;sensor_type;location;lat;lon;timestamp;temperature;humidity
439;DHT22;206;48.782;9.252;2023-03-01T00:01:10;1.70;34.20
439;DHT22;206;48.782;9.252;2023-03-01T00:03:36;1.70;34.40
439;DHT22;206;48.782;9.252;2023-03-01T00:06:02;1.70;33.70
439;DHT22;206;48.782;9.252;2023-03-01T00:08:28;1.70;34.30
439;DHT22;206;48.782;9.252;2023-03-01T00:13:30;1.60;34.70
439;DHT22;206;48.782;9.252;2023-03-01T00:15:56;1.60;34.80
439;DHT22;206;48.782;9.252;2023-03-01T00:18:21;1.60;34.60
439;DHT22;206;48.782;9.252;2023-03-01T00:20:53;1.60;34.40
439;DHT22;206;48.782;9.252;2023-03-01T00:23:20;1.60;34.60
439;DHT22;206;48.782;9.252;2023-03-01T00:25:45;1.50;34.70
439;DHT22;206;48.782;9.252;2023-03-01T00:28:11;1.50;35.00
439;DHT22;206;48.782;9.252;2023-03-01T00:30:37;1.50;35.00
439;DHT22;206;48.782;9.252;2023-03-01T00:33:02;1.60;35.20
439;DHT22;206;48.782;9.252;2023-03-01T00:35:28;1.60;35.20
439;DHT22;206;48.782;9.252;2023-03-01T00:37:54;1.60;35.10
439;DHT22;206;48.782;9.252;2023-03-01T00:40:24;1.50;35.20
439;DHT22;206;48.782;9.252;2023-03-01T00:42:49;1.50;35.40
439;DHT22;206;48.782;9.252;2023-03-01T00:45:15;1.60;35.50
439;DHT22;206;48.782;9.252;2023-03-01T00:47:41;1.60;35.30
439;DHT22;206;48.782;9.252;2023-03-01T00:50:07;1.60;35.30
439;DHT22;206;48.782;9.252;2023-03-01T00:52:33;1.60;35.30
439;DHT22;206;48.782;9.252;2023-03-01T00:54:59;1.60;35.30
439;DHT22;206;48.782;9.252;2023-03-01T00:57:24;1.60;35.50
439;DHT22;206;48.782;9.252;2023-03-01T00:59:51;1.50;35.50
439;DHT22;206;48.782;9.252;2023-03-01T01:02:20;1.50;35.90
439;DHT22;206;48.782;9.252;2023-03-01T01:04:46;1.40;35.80
439;DHT22;206;48.782;9.252;2023-03-01T01:07:12;1.50;36.10
439;DHT22;206;48.782;9.252;2023-03-01T01:09:38;1.40;35.80
439;DHT22;206;48.782;9.252;2023-03-01T01:12:04;1.40;35.90
439;DHT22;206;48.782;9.252;2023-03-01T01:14:30;1.40;35.70
439;DHT22;206;48.782;9.252;2023-03-01T01:16:56;1.40;36.00
439;DHT22;206;48.782;9.252;2023-03-01T01:19:22;1.40;36.10
439;DHT22;206;48.782;9.252;2023-03-01T01:21:48;1.40;36.00
439;DHT22;206;48.782;9.252;2023-03-01T01:24:14;1.30;36.70
439;DHT22;206;48.782;9.252;2023-03-01T01:26:40;1.20;36.40
439;DHT22;206;48.782;9.252;2023-03-01T01:29:06;1.10;37.00
439;DHT22;206;48.782;9.252;2023-03-01T01:31:34;1.10;37.40
439;DHT22;206;48.782;9.252;2023-03-01T01:34:01;1.10;37.40
439;DHT22;206;48.782;9.252;2023-03-01T01:36:27;1.10;37.40
439;DHT22;206;48.782;9.252;2023-03-01T01:38:53;1.10;37.40
439;DHT22;206;48.782;9.252;2023-03-01T01:41:19;1.10;37.40
439;DHT22;206;48.782;9.252;2023-03-01T01:44:10;1.10;37.40
439;DHT22;206;48.782;9.252;2023-03-01T01:46:34;1.10;37.90
439;DHT22;206;48.782;9.252;2023-03-01T01:49:05;1.10;38.10
439;DHT22;206;48.782;9.252;2023-03-01T01:51:37;1.10;38.10
439;DHT22;206;48.782;9.252;2023-03-01T01:54:10;1.20;38.00
439;DHT22;206;48.782;9.252;2023-03-01T01:56:40;1.20;37.50
439;DHT22;206;48.782;9.252;2023-03-01T01:59:07;1.30;37.60
439;DHT22;206;48.782;9.252;2023-03-01T02:01:33;1.40;36.70
439;DHT22;206;48.782;9.252;2023-03-01T02:03:59;1.50;36.80
439;DHT22;206;48.782;9.252;2023-03-01T02:06:49;1.60;36.20
439;DHT22;206;48.782;9.252;2023-03-01T02:09:18;1.60;35.40
439;DHT22;206;48.782;9.252;2023-03-01T02:11:45;1.70;35.50
439;DHT22;206;48.782;9.252;2023-03-01T02:14:12;1.70;35.10
439;DHT22;206;48.782;9.252;2023-03-01T02:16:38;1.70;35.10
439;DHT22;206;48.782;9.252;2023-03-01T02:19:05;1.80;34.80
439;DHT22;206;48.782;9.252;2023-03-01T02:21:46;1.90;34.50
439;DHT22;206;48.782;9.252;2023-03-01T02:24:29;1.90;34.40
439;DHT22;206;48.782;9.252;2023-03-01T02:26:58;1.90;34.20
439;DHT22;206;48.782;9.252;2023-03-01T02:29:24;2.00;33.90
439;DHT22;206;48.782;9.252;2023-03-01T02:31:52;1.90;33.20
439;DHT22;206;48.782;9.252;2023-03-01T02:34:23;2.00;33.70
439;DHT22;206;48.782;9.252;2023-03-01T02:36:57;2.00;33.80
439;DHT22;206;48.782;9.252;2023-03-01T02:39:33;2.10;33.30
439;DHT22;206;48.782;9.252;2023-03-01T02:42:01;2.10;33.30
439;DHT22;206;48.782;9.252;2023-03-01T02:44:27;2.10;33.50
439;DHT22;206;48.782;9.252;2023-03-01T02:46:55;2.10;33.80
439;DHT22;206;48.782;9.252;2023-03-01T02:49:33;2.20;33.40
439;DHT22;206;48.782;9.252;2023-03-01T02:54:53;2.20;33.40
439;DHT22;206;48.782;9.252;2023-03-01T02:57:20;2.20;33.40
439;DHT22;206;48.782;9.252;2023-03-01T02:59:47;2.30;33.50
439;DHT22;206;48.782;9.252;2023-03-01T03:02:21;2.40;32.70
439;DHT22;206;48.782;9.252;2023-03-01T03:05:11;2.50;31.80
439;DHT22;206;48.782;9.252;2023-03-01T03:07:39;2.50;31.80
439;DHT22;206;48.782;9.252;2023-03-01T03:10:06;2.60;32.00
439;DHT22;206;48.782;9.252;2023-03-01T03:12:32;2.60;31.90
439;DHT22;206;48.782;9.252;2023-03-01T03:14:58;2.50;32.10
439;DHT22;206;48.782;9.252;2023-03-01T03:17:23;2.50;32.20
439;DHT22;206;48.782;9.252;2023-03-01T03:19:49;2.50;31.90
439;DHT22;206;48.782;9.252;2023-03-01T03:22:15;2.50;32.30
439;DHT22;206;48.782;9.252;2023-03-01T03:24:40;2.60;32.30
439;DHT22;206;48.782;9.252;2023-03-01T03:27:06;2.50;32.20
439;DHT22;206;48.782;9.252;2023-03-01T03:29:32;2.60;32.30
439;DHT22;206;48.782;9.252;2023-03-01T03:31:58;2.60;32.50
439;DHT22;206;48.782;9.252;2023-03-01T03:34:24;2.60;32.50
439;DHT22;206;48.782;9.252;2023-03-01T03:36:56;2.70;32.00
439;DHT22;206;48.782;9.252;2023-03-01T03:39:28;2.70;31.80
439;DHT22;206;48.782;9.252;2023-03-01T03:41:54;2.70;31.70
439;DHT22;206;48.782;9.252;2023-03-01T03:44:20;2.70;32.00
439;DHT22;206;48.782;9.252;2023-03-01T03:46:46;2.70;31.80
439;DHT22;206;48.782;9.252;2023-03-01T03:49:12;2.70;31.60
439;DHT22;206;48.782;9.252;2023-03-01T03:51:37;2.80;31.70
439;DHT22;206;48.782;9.252;2023-03-01T03:54:03;2.80;31.60
439;DHT22;206;48.782;9.252;2023-03-01T03:56:28;2.80;31.20
439;DHT22;206;48.782;9.252;2023-03-01T03:58:54;2.80;31.10
439;DHT22;206;48.782;9.252;2023-03-01T04:01:20;2.90;31.00
439;DHT22;206;48.782;9.252;2023-03-01T04:03:45;2.90;30.70
439;DHT22;206;48.782;9.252;2023-03-01T04:06:19;3.00;30.60
439;DHT22;206;48.782;9.252;2023-03-01T04:08:45;3.00;30.30
439;DHT22;206;48.782;9.252;2023-03-01T04:11:11;3.10;30.20
439;DHT22;206;48.782;9.252;2023-03-01T04:13:54;3.10;30.40
439;DHT22;206;48.782;9.252;2023-03-01T04:16:20;3.10;30.20
439;DHT22;206;48.782;9.252;2023-03-01T04:18:46;3.10;30.50
439;DHT22;206;48.782;9.252;2023-03-01T04:21:12;3.10;30.50
439;DHT22;206;48.782;9.252;2023-03-01T04:23:38;3.10;30.00
439;DHT22;206;48.782;9.252;2023-03-01T04:26:04;3.20;30.20
439;DHT22;206;48.782;9.252;2023-03-01T04:28:41;3.20;30.30
439;DHT22;206;48.782;9.252;2023-03-01T04:31:16;3.20;30.20
439;DHT22;206;48.782;9.252;2023-03-01T04:33:47;3.20;30.10
439;DHT22;206;48.782;9.252;2023-03-01T04:36:15;3.20;30.30
439;DHT22;206;48.782;9.252;2023-03-01T04:38:41;3.20;30.00
439;DHT22;206;48.782;9.252;2023-03-01T04:41:10;3.20;29.90
439;DHT22;206;48.782;9.252;2023-03-01T04:43:36;3.20;30.10
439;DHT22;206;48.782;9.252;2023-03-01T04:46:09;3.10;30.10
439;DHT22;206;48.782;9.252;2023-03-01T04:48:37;3.10;30.00
439;DHT22;206;48.782;9.252;2023-03-01T04:51:03;3.10;30.00
439;DHT22;206;48.782;9.252;2023-03-01T04:53:29;3.10;29.90
439;DHT22;206;48.782;9.252;2023-03-01T04:55:56;3.10;30.00
439;DHT22;206;48.782;9.252;2023-03-01T04:58:26;3.00;29.70
439;DHT22;206;48.782;9.252;2023-03-01T05:00:53;3.00;30.50
439;DHT22;206;48.782;9.252;2023-03-01T05:03:19;3.00;30.00
439;DHT22;206;48.782;9.252;2023-03-01T05:05:48;3.00;30.00
439;DHT22;206;48.782;9.252;2023-03-01T05:08:14;2.90;29.90
439;DHT22;206;48.782;9.252;2023-03-01T05:10:49;3.00;30.20
439;DHT22;206;48.782;9.252;2023-03-01T05:13:15;3.00;30.30
439;DHT22;206;48.782;9.252;2023-03-01T05:15:56;3.00;30.40
439;DHT22;206;48.782;9.252;2023-03-01T05:18:23;2.90;30.70
439;DHT22;206;48.782;9.252;2023-03-01T05:20:52;2.80;31.10
439;DHT22;206;48.782;9.252;2023-03-01T05:23:18;2.90;31.30
439;DHT22;206;48.782;9.252;2023-03-01T05:25:44;2.90;31.20
439;DHT22;206;48.782;9.252;2023-03-01T05:28:11;2.90;31.00
439;DHT22;206;48.782;9.252;2023-03-01T05:30:37;2.80;31.20
439;DHT22;206;48.782;9.252;2023-03-01T05:33:04;2.80;31.70
439;DHT22;206;48.782;9.252;2023-03-01T05:35:31;2.80;31.80
439;DHT22;206;48.782;9.252;2023-03-01T05:37:58;2.80;31.80
439;DHT22;206;48.782;9.252;2023-03-01T05:40:24;2.80;31.90
439;DHT22;206;48.782;9.252;2023-03-01T05:42:53;2.80;32.00
439;DHT22;206;48.782;9.252;2023-03-01T05:45:20;2.70;31.90
439;DHT22;206;48.782;9.252;2023-03-01T05:47:47;2.70;32.50
439;DHT22;206;48.782;9.252;2023-03-01T05:50:27;2.70;32.60
439;DHT22;206;48.782;9.252;2023-03-01T05:53:06;2.70;32.60
439;DHT22;206;48.782;9.252;2023-03-01T05:55:34;2.60;32.50
439;DHT22;206;48.782;9.252;2023-03-01T05:58:02;2.60;32.60
439;DHT22;206;48.782;9.252;2023-03-01T06:00:29;2.60;32.80
439;DHT22;206;48.782;9.252;2023-03-01T06:02:56;2.50;33.30
439;DHT22;206;48.782;9.252;2023-03-01T06:05:22;2.50;33.30
439;DHT22;206;48.782;9.252;2023-03-01T06:07:48;2.50;34.30
439;DHT22;206;48.782;9.252;2023-03-01T06:10:15;2.50;33.60
439;DHT22;206;48.782;9.252;2023-03-01T06:12:42;2.60;33.40
439;DHT22;206;48.782;9.252;2023-03-01T06:15:10;2.50;33.60
439;DHT22;206;48.782;9.252;2023-03-01T06:17:36;2.50;33.60
439;DHT22;206;48.782;9.252;2023-03-01T06:22:33;2.40;33.60
439;DHT22;206;48.782;9.252;2023-03-01T06:24:59;2.30;34.20
439;DHT22;206;48.782;9.252;2023-03-01T06:27:24;2.30;34.40
439;DHT22;206;48.782;9.252;2023-03-01T06:29:50;2.20;34.90
439;DHT22;206;48.782;9.252;2023-03-01T06:32:16;2.20;35.30
439;DHT22;206;48.782;9.252;2023-03-01T06:34:41;2.20;35.60
439;DHT22;206;48.782;9.252;2023-03-01T06:37:07;2.20;35.00
439;DHT22;206;48.782;9.252;2023-03-01T06:39:33;2.30;35.20
439;DHT22;206;48.782;9.252;2023-03-01T06:41:59;2.30;34.70
439;DHT22;206;48.782;9.252;2023-03-01T06:44:25;2.40;34.00
439;DHT22;206;48.782;9.252;2023-03-01T06:46:51;2.40;34.20
439;DHT22;206;48.782;9.252;2023-03-01T06:49:16;2.50;33.60
439;DHT22;206;48.782;9.252;2023-03-01T06:51:43;2.60;33.70
439;DHT22;206;48.782;9.252;2023-03-01T06:54:09;2.50;33.60
439;DHT22;206;48.782;9.252;2023-03-01T06:56:35;2.50;33.60
439;DHT22;206;48.782;9.252;2023-03-01T06:59:01;2.40;33.60
439;DHT22;206;48.782;9.252;2023-03-01T07:01:28;2.30;33.50
439;DHT22;206;48.782;9.252;2023-03-01T07:03:54;2.20;33.90
439;DHT22;206;48.782;9.252;2023-03-01T07:06:20;2.10;34.20
439;DHT22;206;48.782;9.252;2023-03-01T07:08:46;2.10;34.90
439;DHT22;206;48.782;9.252;2023-03-01T07:11:11;2.10;35.00
439;DHT22;206;48.782;9.252;2023-03-01T07:13:37;2.10;35.00
439;DHT22;206;48.782;9.252;2023-03-01T07:16:03;2.00;35.00
439;DHT22;206;48.782;9.252;2023-03-01T07:18:28;2.00;35.30
439;DHT22;206;48.782;9.252;2023-03-01T07:20:54;2.10;35.10
439;DHT22;206;48.782;9.252;2023-03-01T07:23:19;2.00;35.00
439;DHT22;206;48.782;9.252;2023-03-01T07:25:51;1.90;36.00
439;DHT22;206;48.782;9.252;2023-03-01T07:28:17;1.80;35.60
439;DHT22;206;48.782;9.252;2023-03-01T07:30:43;1.80;36.10
439;DHT22;206;48.782;9.252;2023-03-01T07:33:08;1.90;36.10
439;DHT22;206;48.782;9.252;2023-03-01T07:35:34;1.90;36.40
439;DHT22;206;48.782;9.252;2023-03-01T07:37:59;1.90;36.10
439;DHT22;206;48.782;9.252;2023-03-01T07:40:25;1.90;35.70
439;DHT22;206;48.782;9.252;2023-03-01T07:42:55;2.10;36.00
439;DHT22;206;48.782;9.252;2023-03-01T07:45:21;2.10;35.10
439;DHT22;206;48.782;9.252;2023-03-01T07:47:47;2.20;35.10
439;DHT22;206;48.782;9.252;2023-03-01T07:50:12;2.10;34.90
439;DHT22;206;48.782;9.252;2023-03-01T07:52:39;2.20;35.40
439;DHT22;206;48.782;9.252;2023-03-01T07:55:05;2.30;34.30
439;DHT22;206;48.782;9.252;2023-03-01T07:57:30;2.40;34.20
439;DHT22;206;48.782;9.252;2023-03-01T07:59:56;2.60;34.00
439;DHT22;206;48.782;9.252;2023-03-01T08:02:22;2.90;32.90
439;DHT22;206;48.782;9.252;2023-03-01T08:04:48;3.10;31.10
439;DHT22;206;48.782;9.252;2023-03-01T08:07:13;3.20;30.90
439;DHT22;206;48.782;9.252;2023-03-01T08:09:39;3.20;30.00
439;DHT22;206;48.782;9.252;2023-03-01T08:12:05;3.20;30.20
439;DHT22;206;48.782;9.252;2023-03-01T08:14:31;3.30;30.00
439;DHT22;206;48.782;9.252;2023-03-01T08:16:57;3.50;29.70
439;DHT22;206;48.782;9.252;2023-03-01T08:19:23;3.40;29.60
439;DHT22;206;48.782;9.252;2023-03-01T08:21:49;3.50;29.00
439;DHT22;206;48.782;9.252;2023-03-01T08:24:14;3.40;29.60
439;DHT22;206;48.782;9.252;2023-03-01T08:26:40;3.50;29.70
439;DHT22;206;48.782;9.252;2023-03-01T08:29:06;3.50;29.30
439;DHT22;206;48.782;9.252;2023-03-01T08:31:37;3.80;28.70
439;DHT22;206;48.782;9.252;2023-03-01T08:34:09;3.90;27.90
439;DHT22;206;48.782;9.252;2023-03-01T08:36:38;3.90;27.80
439;DHT22;206;48.782;9.252;2023-03-01T08:39:04;4.00;27.90
439;DHT22;206;48.782;9.252;2023-03-01T08:41:30;3.80;28.20
439;DHT22;206;48.782;9.252;2023-03-01T08:43:56;3.90;28.20
439;DHT22;206;48.782;9.252;2023-03-01T08:46:28;4.00;28.00
439;DHT22;206;48.782;9.252;2023-03-01T08:48:54;4.20;27.70
439;DHT22;206;48.782;9.252;2023-03-01T08:51:21;4.40;27.10
439;DHT22;206;48.782;9.252;2023-03-01T08:53:47;4.30;26.90
439;DHT22;206;48.782;9.252;2023-03-01T08:56:13;4.40;26.40
439;DHT22;206;48.782;9.252;2023-03-01T08:58:39;4.50;26.60
439;DHT22;206;48.782;9.252;2023-03-01T09:01:11;4.70;26.50
439;DHT22;206;48.782;9.252;2023-03-01T09:03:38;4.90;26.10
439;DHT22;206;48.782;9.252;2023-03-01T09:06:05;5.00;25.50
439;DHT22;206;48.782;9.252;2023-03-01T09:08:35;5.00;25.40
439;DHT22;206;48.782;9.252;2023-03-01T09:11:02;5.20;25.30
439;DHT22;206;48.782;9.252;2023-03-01T09:13:28;5.20;24.90
439;DHT22;206;48.782;9.252;2023-03-01T09:15:57;5.30;25.00
439;DHT22;206;48.782;9.252;2023-03-01T09:18:22;5.30;24.60
439;DHT22;206;48.782;9.252;2023-03-01T09:20:48;5.20;24.50
439;DHT22;206;48.782;9.252;2023-03-01T09:23:13;5.40;24.60
439;DHT22;206;48.782;9.252;2023-03-01T09:25:39;5.50;24.10
439;DHT22;206;48.782;9.252;2023-03-01T09:28:05;5.40;23.90
439;DHT22;206;48.782;9.252;2023-03-01T09:30:30;5.10;24.90
439;DHT22;206;48.782;9.252;2023-03-01T09:32:59;5.20;23.40
439;DHT22;206;48.782;9.252;2023-03-01T09:35:24;5.30;23.30
439;DHT22;206;48.782;9.252;2023-03-01T09:37:51;5.00;23.50
439;DHT22;206;48.782;9.252;2023-03-01T09:40:20;4.80;24.00
439;DHT22;206;48.782;9.252;2023-03-01T09:42:54;4.80;24.70
439;DHT22;206;48.782;9.252;2023-03-01T09:45:30;4.90;24.30
439;DHT22;206;48.782;9.252;2023-03-01T09:47:59;5.00;23.80
439;DHT22;206;48.782;9.252;2023-03-01T09:50:30;4.80;23.90
439;DHT22;206;48.782;9.252;2023-03-01T09:53:11;4.80;24.20
439;DHT22;206;48.782;9.252;2023-03-01T09:56:20;4.80;24.20
439;DHT22;206;48.782;9.252;2023-03-01T10:02:17;5.10;24.00
439;DHT22;206;48.782;9.252;2023-03-01T10:05:00;5.00;23.60
439;DHT22;206;48.782;9.252;2023-03-01T10:10:16;5.30;23.80
439;DHT22;206;48.782;9.252;2023-03-01T10:12:45;5.40;23.00
439;DHT22;206;48.782;9.252;2023-03-01T10:15:25;5.40;23.00
439;DHT22;206;48.782;9.252;2023-03-01T10:17:56;5.50;23.10
439;DHT22;206;48.782;9.252;2023-03-01T10:20:28;5.40;23.00
439;DHT22;206;48.782;9.252;2023-03-01T10:22:55;5.40;23.10
439;DHT22;206;48.782;9.252;2023-03-01T10:26:01;5.50;23.00
439;DHT22;206;48.782;9.252;2023-03-01T10:31:23;5.90;22.50
439;DHT22;206;48.782;9.252;2023-03-01T10:33:53;6.00;22.10
439;DHT22;206;48.782;9.252;2023-03-01T10:36:21;6.00;21.70
439;DHT22;206;48.782;9.252;2023-03-01T10:38:50;6.10;21.70
439;DHT22;206;48.782;9.252;2023-03-01T10:41:18;6.10;21.50
439;DHT22;206;48.782;9.252;2023-03-01T10:43:55;6.20;21.70
439;DHT22;206;48.782;9.252;2023-03-01T10:51:32;6.20;21.20
439;DHT22;206;48.782;9.252;2023-03-01T10:53:57;6.40;20.90
439;DHT22;206;48.782;9.252;2023-03-01T10:56:23;6.40;20.80
439;DHT22;206;48.782;9.252;2023-03-01T11:01:24;6.40;21.00
439;DHT22;206;48.782;9.252;2023-03-01T11:04:23;6.50;20.70
439;DHT22;206;48.782;9.252;2023-03-01T11:06:58;6.80;20.50
439;DHT22;206;48.782;9.252;2023-03-01T11:09:24;7.00;20.40
439;DHT22;206;48.782;9.252;2023-03-01T11:11:57;7.10;20.10
439;DHT22;206;48.782;9.252;2023-03-01T11:14:24;6.90;19.90
439;DHT22;206;48.782;9.252;2023-03-01T11:19:28;6.90;20.30
439;DHT22;206;48.782;9.252;2023-03-01T11:27:03;7.10;19.70
439;DHT22;206;48.782;9.252;2023-03-01T11:29:37;7.30;19.80
439;DHT22;206;48.782;9.252;2023-03-01T11:32:07;7.50;19.00
439;DHT22;206;48.782;9.252;2023-03-01T11:35:04;7.70;19.20
439;DHT22;206;48.782;9.252;2023-03-01T11:49:11;7.80;18.70
439;DHT22;206;48.782;9.252;2023-03-01T11:51:45;7.90;18.50
439;DHT22;206;48.782;9.252;2023-03-01T11:54:40;8.10;18.20
439;DHT22;206;48.782;9.252;2023-03-01T11:57:33;8.20;18.10
439;DHT22;206;48.782;9.252;2023-03-01T12:00:17;8.30;18.00
439;DHT22;206;48.782;9.252;2023-03-01T12:06:00;8.10;18.10
439;DHT22;206;48.782;9.252;2023-03-01T12:11:48;8.30;18.00
439;DHT22;206;48.782;9.252;2023-03-01T12:27:37;8.70;17.20
439;DHT22;206;48.782;9.252;2023-03-01T12:30:27;8.80;17.00
439;DHT22;206;48.782;9.252;2023-03-01T12:38:59;8.90;17.10
439;DHT22;206;48.782;9.252;2023-03-01T12:46:56;8.80;17.00
439;DHT22;206;48.782;9.252;2023-03-01T12:49:32;9.00;17.10
439;DHT22;206;48.782;9.252;2023-03-01T12:52:04;9.20;17.00
439;DHT22;206;48.782;9.252;2023-03-01T12:54:36;9.30;16.40
439;DHT22;206;48.782;9.252;2023-03-01T12:57:16;9.30;16.80
439;DHT22;206;48.782;9.252;2023-03-01T13:02:22;9.20;17.10
439;DHT22;206;48.782;9.252;2023-03-01T13:11:04;9.10;17.20
439;DHT22;206;48.782;9.252;2023-03-01T13:13:20;9.00;17.20
439;DHT22;206;48.782;9.252;2023-03-01T13:15:47;9.10;17.20
439;DHT22;206;48.782;9.252;2023-03-01T13:20:47;9.20;17.30
439;DHT22;206;48.782;9.252;2023-03-01T13:34:00;9.30;17.00
439;DHT22;206;48.782;9.252;2023-03-01T13:44:33;9.60;16.80
439;DHT22;206;48.782;9.252;2023-03-01T13:49:47;9.60;16.90
439;DHT22;206;48.782;9.252;2023-03-01T13:54:59;9.50;17.50
439;DHT22;206;48.782;9.252;2023-03-01T13:57:32;9.50;17.50
439;DHT22;206;48.782;9.252;2023-03-01T13:59:59;9.50;17.50
439;DHT22;206;48.782;9.252;2023-03-01T14:02:25;9.50;17.50
439;DHT22;206;48.782;9.252;2023-03-01T14:04:58;9.50;17.50
439;DHT22;206;48.782;9.252;2023-03-01T14:07:24;9.40;17.40
439;DHT22;206;48.782;9.252;2023-03-01T14:10:02;9.40;17.40
439;DHT22;206;48.782;9.252;2023-03-01T14:12:44;9.40;17.40
439;DHT22;206;48.782;9.252;2023-03-01T14:18:09;9.30;17.30
439;DHT22;206;48.782;9.252;2023-03-01T14:20:44;9.40;17.40
439;DHT22;206;48.782;9.252;2023-03-01T14:23:19;9.40;17.40
439;DHT22;206;48.782;9.252;2023-03-01T14:25:54;9.40;17.70
439;DHT22;206;48.782;9.252;2023-03-01T14:28:24;9.30;17.90
439;DHT22;206;48.782;9.252;2023-03-01T14:30:53;9.40;17.40
439;DHT22;206;48.782;9.252;2023-03-01T14:40:59;9.70;16.70
439;DHT22;206;48.782;9.252;2023-03-01T14:43:27;9.70;16.80
439;DHT22;206;48.782;9.252;2023-03-01T14:45:54;9.80;16.60
439;DHT22;206;48.782;9.252;2023-03-01T14:48:20;9.80;16.60
439;DHT22;206;48.782;9.252;2023-03-01T14:50:46;9.80;16.60
439;DHT22;206;48.782;9.252;2023-03-01T14:53:19;9.80;16.70
439;DHT22;206;48.782;9.252;2023-03-01T14:55:59;9.70;17.40
439;DHT22;206;48.782;9.252;2023-03-01T14:58:27;9.50;17.50
439;DHT22;206;48.782;9.252;2023-03-01T15:00:56;9.40;17.40
439;DHT22;206;48.782;9.252;2023-03-01T15:03:40;9.50;17.50
439;DHT22;206;48.782;9.252;2023-03-01T15:06:08;9.60;17.50
439;DHT22;206;48.782;9.252;2023-03-01T15:08:35;9.60;17.50
439;DHT22;206;48.782;9.252;2023-03-01T15:13:44;9.40;17.40
439;DHT22;206;48.782;9.252;2023-03-01T15:16:13;9.50;17.50
439;DHT22;206;48.782;9.252;2023-03-01T15:18:49;9.40;17.40
439;DHT22;206;48.782;9.252;2023-03-01T15:21:19;9.50;17.50
439;DHT22;206;48.782;9.252;2023-03-01T15:24:19;9.60;17.50
439;DHT22;206;48.782;9.252;2023-03-01T15:27:12;9.50;17.50
439;DHT22;206;48.782;9.252;2023-03-01T15:29:39;9.40;17.40
439;DHT22;206;48.782;9.252;2023-03-01T15:32:30;9.40;17.40
439;DHT22;206;48.782;9.252;2023-03-01T15:34:57;9.30;17.40
439;DHT22;206;48.782;9.252;2023-03-01T15:37:45;9.40;17.40
439;DHT22;206;48.782;9.252;2023-03-01T15:40:32;9.30;17.30
439;DHT22;206;48.782;9.252;2023-03-01T15:43:03;9.30;17.30
439;DHT22;206;48.782;9.252;2023-03-01T15:45:30;9.40;18.00
439;DHT22;206;48.782;9.252;2023-03-01T15:48:25;9.40;17.40
439;DHT22;206;48.782;9.252;2023-03-01T15:50:55;9.50;17.50
439;DHT22;206;48.782;9.252;2023-03-01T15:53:22;9.40;17.40
439;DHT22;206;48.782;9.252;2023-03-01T15:55:47;9.30;17.30
439;DHT22;206;48.782;9.252;2023-03-01T15:58:18;9.10;17.20
439;DHT22;206;48.782;9.252;2023-03-01T16:00:45;9.00;17.50
439;DHT22;206;48.782;9.252;2023-03-01T16:03:11;8.80;17.90
439;DHT22;206;48.782;9.252;2023-03-01T16:05:38;8.70;17.70
439;DHT22;206;48.782;9.252;2023-03-01T16:08:04;8.70;17.90
439;DHT22;206;48.782;9.252;2023-03-01T16:10:35;8.70;18.00
439;DHT22;206;48.782;9.252;2023-03-01T16:13:01;8.60;18.00
439;DHT22;206;48.782;9.252;2023-03-01T16:15:29;8.80;18.00
439;DHT22;206;48.782;9.252;2023-03-01T16:17:55;8.70;17.20
439;DHT22;206;48.782;9.252;2023-03-01T16:20:21;8.70;17.30
439;DHT22;206;48.782;9.252;2023-03-01T16:22:46;8.60;17.60
439;DHT22;206;48.782;9.252;2023-03-01T16:25:14;8.60;17.80
439;DHT22;206;48.782;9.252;2023-03-01T16:27:45;8.60;17.90
439;DHT22;206;48.782;9.252;2023-03-01T16:30:12;8.40;17.80
439;DHT22;206;48.782;9.252;2023-03-01T16:32:42;8.50;18.10
439;DHT22;206;48.782;9.252;2023-03-01T16:35:09;8.50;18.00
439;DHT22;206;48.782;9.252;2023-03-01T16:37:36;8.40;17.70
439;DHT22;206;48.782;9.252;2023-03-01T16:40:03;8.40;17.90
439;DHT22;206;48.782;9.252;2023-03-01T16:42:36;8.40;17.80
439;DHT22;206;48.782;9.252;2023-03-01T16:45:03;8.40;18.30
439;DHT22;206;48.782;9.252;2023-03-01T16:47:29;8.30;17.90
439;DHT22;206;48.782;9.252;2023-03-01T16:49:54;8.30;17.90
439;DHT22;206;48.782;9.252;2023-03-01T16:52:21;8.20;18.10
439;DHT22;206;48.782;9.252;2023-03-01T16:54:48;8.30;18.30
439;DHT22;206;48.782;9.252;2023-03-01T16:57:13;8.30;18.20
439;DHT22;206;48.782;9.252;2023-03-01T16:59:39;8.30;18.20
439;DHT22;206;48.782;9.252;2023-03-01T17:02:08;8.30;18.20
439;DHT22;206;48.782;9.252;2023-03-01T17:04:35;8.20;18.30
439;DHT22;206;48.782;9.252;2023-03-01T17:07:00;8.20;18.50
439;DHT22;206;48.782;9.252;2023-03-01T17:09:26;8.20;18.60
439;DHT22;206;48.782;9.252;2023-03-01T17:11:54;8.20;18.60
439;DHT22;206;48.782;9.252;2023-03-01T17:14:20;8.20;18.60
439;DHT22;206;48.782;9.252;2023-03-01T17:16:46;8.10;18.60
439;DHT22;206;48.782;9.252;2023-03-01T17:19:12;8.10;18.70
439;DHT22;206;48.782;9.252;2023-03-01T17:21:43;8.10;18.70
439;DHT22;206;48.782;9.252;2023-03-01T17:24:09;8.00;19.30
439;DHT22;206;48.782;9.252;2023-03-01T17:26:35;8.00;19.50
439;DHT22;206;48.782;9.252;2023-03-01T17:29:00;7.90;19.60
439;DHT22;206;48.782;9.252;2023-03-01T17:31:26;7.90;19.60
439;DHT22;206;48.782;9.252;2023-03-01T17:33:52;7.80;19.90
439;DHT22;206;48.782;9.252;2023-03-01T17:36:17;7.80;20.00
439;DHT22;206;48.782;9.252;2023-03-01T17:38:43;7.70;20.20
439;DHT22;206;48.782;9.252;2023-03-01T17:41:10;7.70;20.40
439;DHT22;206;48.782;9.252;2023-03-01T17:43:36;7.60;20.40
439;DHT22;206;48.782;9.252;2023-03-01T17:46:02;7.60;20.60
439;DHT22;206;48.782;9.252;2023-03-01T17:48:28;7.50;20.90
439;DHT22;206;48.782;9.252;2023-03-01T17:50:54;7.50;21.10
439;DHT22;206;48.782;9.252;2023-03-01T17:53:20;7.40;21.20
439;DHT22;206;48.782;9.252;2023-03-01T17:55:46;7.40;21.10
439;DHT22;206;48.782;9.252;2023-03-01T17:58:14;7.30;21.30
439;DHT22;206;48.782;9.252;2023-03-01T18:00:40;7.30;21.50
439;DHT22;206;48.782;9.252;2023-03-01T18:03:05;7.30;21.50
439;DHT22;206;48.782;9.252;2023-03-01T18:05:33;7.20;21.60
439;DHT22;206;48.782;9.252;2023-03-01T18:07:59;7.10;21.80
439;DHT22;206;48.782;9.252;2023-03-01T18:10:25;7.10;21.90
439;DHT22;206;48.782;9.252;2023-03-01T18:12:51;7.10;22.00
439;DHT22;206;48.782;9.252;2023-03-01T18:15:16;7.00;21.80
439;DHT22;206;48.782;9.252;2023-03-01T18:17:42;7.00;22.20
439;DHT22;206;48.782;9.252;2023-03-01T18:20:08;7.00;22.30
439;DHT22;206;48.782;9.252;2023-03-01T18:22:34;6.90;22.20
439;DHT22;206;48.782;9.252;2023-03-01T18:25:02;6.90;22.30
439;DHT22;206;48.782;9.252;2023-03-01T18:27:29;6.90;22.40
439;DHT22;206;48.782;9.252;2023-03-01T18:29:55;6.90;22.30
439;DHT22;206;48.782;9.252;2023-03-01T18:32:21;6.80;22.60
439;DHT22;206;48.782;9.252;2023-03-01T18:34:47;6.80;22.70
439;DHT22;206;48.782;9.252;2023-03-01T18:37:13;6.80;22.80
439;DHT22;206;48.782;9.252;2023-03-01T18:39:39;6.70;22.80
439;DHT22;206;48.782;9.252;2023-03-01T18:42:06;6.60;23.20
439;DHT22;206;48.782;9.252;2023-03-01T18:44:32;6.60;23.70
439;DHT22;206;48.782;9.252;2023-03-01T18:46:57;6.60;23.70
439;DHT22;206;48.782;9.252;2023-03-01T18:49:24;6.50;23.70
439;DHT22;206;48.782;9.252;2023-03-01T18:51:51;6.50;23.70
439;DHT22;206;48.782;9.252;2023-03-01T18:54:16;6.40;23.60
439;DHT22;206;48.782;9.252;2023-03-01T18:56:43;6.40;23.60
439;DHT22;206;48.782;9.252;2023-03-01T18:59:09;6.30;23.60
439;DHT22;206;48.782;9.252;2023-03-01T19:01:35;6.30;23.60
439;DHT22;206;48.782;9.252;2023-03-01T19:04:00;6.30;24.10
439;DHT22;206;48.782;9.252;2023-03-01T19:06:31;6.20;24.20